Time;durP1;ratioP1;P1;durP2;ratioP2;P2;SDS_P1;SDS_P2;PMS_P1;PMS_P2;Temp;Humidity;BMP_temperature;BMP_pressure;BME280_temperature;BME280_humidity;BME280_pressure;Samples;Min_cycle;Max_cycle;Signal;HPM_P1;HPM_P2
2023/12/11 00:00:23;;;;;;;42.88;6.00;;;;;;;13.39;74.42;99891.56;5030462;28;20033;-49
2023/12/11 00:02:49;;;;;;;53.35;6.20;;;;;;;13.41;74.40;99878.44;5030884;28;20033;-46
2023/12/11 00:05:14;;;;;;;53.75;5.30;;;;;;;13.77;72.84;99884.91;5030419;28;20252;-47
2023/12/11 00:07:40;;;;;;;50.42;5.68;;;;;;;13.74;72.80;99898.88;5030253;28;20034;-45
2023/12/11 00:10:05;;;;;;;48.05;5.68;;;;;;;13.63;73.52;99887.72;5030808;28;20092;-49
2023/12/11 00:12:31;;;;;;;51.15;6.22;;;;;;;13.80;72.18;99882.22;5029041;28;20042;-44
2023/12/11 00:14:58;;;;;;;38.15;4.85;;;;;;;14.14;72.16;99883.41;5031410;28;20112;-48
2023/12/11 00:17:23;;;;;;;47.65;5.80;;;;;;;14.03;71.79;99882.72;5030259;28;20048;-44
2023/12/11 00:19:48;;;;;;;41.55;5.15;;;;;;;14.22;71.48;99880.66;5030477;28;20038;-47
2023/12/11 00:22:14;;;;;;;44.97;5.50;;;;;;;13.81;72.41;99871.72;5030203;28;20514;-44
2023/12/11 00:24:39;;;;;;;45.53;5.85;;;;;;;13.65;74.04;99874.59;5030048;28;20083;-46
2023/12/11 00:27:04;;;;;;;43.85;5.32;;;;;;;14.22;71.35;99872.78;5030310;28;20039;-44
2023/12/11 00:29:30;;;;;;;51.40;6.13;;;;;;;13.93;72.14;99875.03;5029826;28;20043;-50
2023/12/11 00:31:55;;;;;;;45.17;5.68;;;;;;;13.79;73.11;99873.47;5030239;28;20122;-44
2023/12/11 00:34:20;;;;;;;43.92;5.40;;;;;;;14.00;71.56;99872.28;5029778;28;20061;-46
2023/12/11 00:36:47;;;;;;;46.92;5.72;;;;;;;14.06;71.80;99866.06;5029836;28;20518;-44
2023/12/11 00:39:15;;;;;;;45.85;5.72;;;;;;;13.55;73.16;99860.75;5029808;28;20044;-46
2023/12/11 00:41:43;;;;;;;38.78;5.70;;;;;;;13.44;73.37;99862.69;5029659;28;20068;-46
2023/12/11 00:44:08;;;;;;;43.22;5.82;;;;;;;13.77;72.55;99861.31;5030096;28;20049;-49
2023/12/11 00:46:34;;;;;;;43.83;5.80;;;;;;;13.83;72.46;99863.84;5028964;28;20137;-43
2023/12/11 00:48:59;;;;;;;43.53;5.43;;;;;;;14.14;71.11;99861.59;5028705;28;20034;-45
2023/12/11 00:51:24;;;;;;;48.28;5.82;;;;;;;14.28;70.17;99859.56;5029402;28;20037;-46
2023/12/11 00:53:50;;;;;;;44.83;6.07;;;;;;;14.22;70.79;99855.28;5030172;28;20512;-46
2023/12/11 00:56:15;;;;;;;51.15;5.90;;;;;;;13.97;72.16;99851.34;5029785;28;20038;-48
2023/12/11 00:58:41;;;;;;;39.08;5.55;;;;;;;14.01;72.39;99847.81;5029587;28;20079;-48
2023/12/11 01:01:06;;;;;;;48.03;5.63;;;;;;;14.22;71.98;99842.19;5029559;28;20044;-45
2023/12/11 01:03:33;;;;;;;40.67;5.35;;;;;;;14.65;70.15;99843.19;5029014;28;20095;-45
2023/12/11 01:05:58;;;;;;;42.00;5.53;;;;;;;14.20;71.04;99841.38;5029938;28;20069;-46
2023/12/11 01:08:27;;;;;;;43.13;5.03;;;;;;;14.01;72.33;99834.72;5029328;28;20072;-47
2023/12/11 01:10:57;;;;;;;44.22;5.10;;;;;;;14.18;71.89;99837.03;5029410;28;20033;-43
2023/12/11 01:13:22;;;;;;;38.72;5.00;;;;;;;13.73;73.99;99836.91;5029381;28;20114;-48
2023/12/11 01:15:48;;;;;;;35.25;5.78;;;;;;;13.81;73.92;99823.69;5029735;28;20496;-45
2023/12/11 01:18:13;;;;;;;40.28;6.03;;;;;;;13.68;72.93;99833.50;5029784;28;20044;-45
2023/12/11 01:20:39;;;;;;;42.47;5.68;;;;;;;13.64;73.03;99815.25;5029156;28;20559;-51
2023/12/11 01:23:05;;;;;;;49.15;5.22;;;;;;;14.09;71.90;99818.84;5029923;28;20041;-47
2023/12/11 01:25:30;;;;;;;41.40;6.00;;;;;;;13.74;72.46;99822.06;5029177;28;20180;-45
2023/12/11 01:27:55;;;;;;;36.33;4.95;;;;;;;13.96;71.17;99822.59;5029742;28;20045;-45
2023/12/11 01:30:21;;;;;;;43.45;5.43;;;;;;;14.06;71.13;99811.03;5029180;28;20069;-48
2023/12/11 01:32:46;;;;;;;45.88;5.43;;;;;;;14.02;70.88;99812.88;5029749;28;20030;-45
2023/12/11 01:35:11;;;;;;;37.95;4.40;;;;;;;14.30;69.45;99813.22;5029523;28;20040;-49
2023/12/11 01:37:37;;;;;;;41.35;4.78;;;;;;;14.16;69.91;99802.13;5028857;28;20063;-49
2023/12/11 01:40:05;;;;;;;39.17;4.97;;;;;;;14.13;69.88;99799.56;5029820;28;20085;-46
2023/12/11 01:42:31;;;;;;;42.55;4.80;;;;;;;14.13;69.71;99794.31;5029359;28;20088;-50
2023/12/11 01:44:57;;;;;;;34.42;5.10;;;;;;;13.81;71.57;99802.75;5029454;28;20037;-46
2023/12/11 01:47:22;;;;;;;35.97;4.45;;;;;;;13.64;73.02;99807.41;5029261;28;20565;-45
2023/12/11 01:49:48;;;;;;;38.40;4.60;;;;;;;13.45;74.71;99801.56;5030380;28;20033;-47
2023/12/11 01:52:14;;;;;;;39.75;5.50;;;;;;;13.31;75.18;99795.69;5033790;28;20079;-47
2023/12/11 01:54:39;;;;;;;36.15;4.85;;;;;;;13.42;75.19;99799.00;5033666;28;20044;-45
2023/12/11 01:57:07;;;;;;;38.03;4.93;;;;;;;13.62;74.58;99775.13;5033420;28;20053;-44
2023/12/11 01:59:33;;;;;;;43.42;5.60;;;;;;;13.48;74.69;99785.81;5033070;28;20175;-44
2023/12/11 02:01:59;;;;;;;42.03;5.40;;;;;;;13.40;74.62;99767.63;5033928;28;20504;-45
2023/12/11 02:04:24;;;;;;;38.65;4.70;;;;;;;13.36;74.42;99792.09;5032743;28;20076;-44
2023/12/11 02:06:50;;;;;;;40.35;4.78;;;;;;;13.36;73.88;99783.38;5033182;28;20049;-45
2023/12/11 02:09:16;;;;;;;33.05;4.53;;;;;;;13.84;72.91;99779.13;5033107;28;20034;-46
2023/12/11 02:11:42;;;;;;;34.00;4.70;;;;;;;13.78;72.66;99772.19;5032484;28;20033;-45
2023/12/11 02:14:08;;;;;;;40.10;4.50;;;;;;;13.97;72.01;99771.88;5033112;28;20033;-48
2023/12/11 02:16:33;;;;;;;37.72;4.90;;;;;;;13.68;72.43;99762.78;5032779;28;20488;-45
2023/12/11 02:18:58;;;;;;;36.38;4.57;;;;;;;13.37;73.21;99765.03;5033876;28;20124;-45
2023/12/11 02:21:24;;;;;;;41.92;4.80;;;;;;;13.72;72.17;99755.75;5032825;28;20452;-44
2023/12/11 02:24:01;;;;;;;38.65;5.10;;;;;;;13.75;71.93;99753.94;5033602;28;20489;-48
2023/12/11 02:26:27;;;;;;;39.15;4.63;;;;;;;13.69;72.13;99758.41;5033517;28;20045;-50
2023/12/11 02:28:52;;;;;;;41.67;4.97;;;;;;;13.90;70.99;99757.19;5033107;28;20458;-44
2023/12/11 02:31:18;;;;;;;37.72;4.57;;;;;;;13.78;71.13;99753.88;5032035;28;20045;-48
2023/12/11 02:33:43;;;;;;;39.55;5.13;;;;;;;13.92;70.68;99750.16;5031436;28;20721;-47
2023/12/11 02:36:09;;;;;;;38.38;4.88;;;;;;;13.88;69.93;99746.72;5032603;28;20044;-45
2023/12/11 02:38:34;;;;;;;53.22;6.40;;;;;;;13.82;70.29;99744.22;5032075;28;20032;-46
2023/12/11 02:41:00;;;;;;;41.50;4.97;;;;;;;14.21;68.54;99743.47;5032384;28;20041;-47
2023/12/11 02:43:25;;;;;;;36.97;4.85;;;;;;;13.84;69.38;99746.81;5032104;28;20056;-44
2023/12/11 02:45:51;;;;;;;47.58;5.88;;;;;;;13.91;68.93;99732.69;5032210;28;20064;-46
2023/12/11 02:48:16;;;;;;;41.08;5.10;;;;;;;13.85;69.34;99730.19;5032645;28;20041;-46
2023/12/11 02:50:42;;;;;;;39.33;5.18;;;;;;;13.95;68.42;99724.78;5031957;28;20030;-47
2023/12/11 02:53:07;;;;;;;41.60;5.35;;;;;;;13.82;69.25;99720.63;5032244;28;20468;-47
2023/12/11 02:55:33;;;;;;;34.80;4.82;;;;;;;14.17;68.11;99727.84;5030024;28;20033;-45
2023/12/11 02:57:59;;;;;;;38.63;5.15;;;;;;;13.96;68.33;99712.53;5032192;28;20034;-50
2023/12/11 03:00:26;;;;;;;40.78;5.80;;;;;;;13.92;68.92;99718.72;5029648;28;20083;-46
2023/12/11 03:02:51;;;;;;;45.05;4.88;;;;;;;14.32;67.63;99719.69;5031926;28;20415;-46
2023/12/11 03:05:17;;;;;;;36.72;5.18;;;;;;;14.16;67.86;99713.00;5030465;28;20105;-46
2023/12/11 03:07:42;;;;;;;32.80;4.18;;;;;;;13.86;68.69;99706.59;5031509;28;20037;-45
2023/12/11 03:10:08;;;;;;;31.63;4.78;;;;;;;14.10;67.36;99715.72;5031701;28;20036;-45
2023/12/11 03:12:34;;;;;;;40.47;4.90;;;;;;;14.47;66.85;99698.41;5031196;28;20057;-45
2023/12/11 03:15:00;;;;;;;35.55;4.90;;;;;;;14.09;67.29;99708.75;5031629;28;20037;-45
2023/12/11 03:17:26;;;;;;;36.95;4.82;;;;;;;14.37;66.76;99707.38;5030872;28;20040;-48
2023/12/11 03:19:52;;;;;;;37.03;6.20;;;;;;;13.99;68.78;99697.59;5031800;28;20037;-49
2023/12/11 03:22:18;;;;;;;34.72;4.60;;;;;;;14.10;68.48;99685.16;5030808;28;20503;-48
2023/12/11 03:24:43;;;;;;;45.38;5.25;;;;;;;13.87;70.69;99689.97;5031302;28;20037;-45
2023/12/11 03:27:09;;;;;;;43.78;4.70;;;;;;;13.80;72.45;99689.22;5031432;28;20654;-49
2023/12/11 03:29:34;;;;;;;35.58;4.80;;;;;;;14.14;71.08;99685.97;5030745;28;20571;-46
2023/12/11 03:31:59;;;;;;;34.85;5.10;;;;;;;14.11;70.82;99684.25;5031077;28;20402;-50
2023/12/11 03:34:25;;;;;;;46.00;5.82;;;;;;;13.94;72.15;99698.59;5029466;28;20049;-47
2023/12/11 03:36:50;;;;;;;39.22;5.15;;;;;;;13.26;75.34;99691.06;5030986;28;20433;-45
2023/12/11 03:39:16;;;;;;;41.38;5.10;;;;;;;13.84;73.71;99676.09;5031296;28;20037;-45
2023/12/11 03:41:41;;;;;;;47.90;5.40;;;;;;;13.36;75.60;99690.00;5030732;28;20651;-48
2023/12/11 03:44:06;;;;;;;45.28;4.70;;;;;;;13.55;74.55;99682.69;5031243;28;20088;-48
2023/12/11 03:46:32;;;;;;;35.97;4.63;;;;;;;13.39;74.55;99676.00;5030449;28;20037;-46
2023/12/11 03:48:57;;;;;;;45.95;5.55;;;;;;;13.51;74.07;99672.31;5031267;28;20043;-45
2023/12/11 03:51:22;;;;;;;38.75;4.20;;;;;;;13.38;73.88;99683.00;5030331;28;20060;-50
2023/12/11 03:53:48;;;;;;;42.28;5.55;;;;;;;13.49;73.88;99676.69;5029811;28;20037;-46
2023/12/11 03:56:13;;;;;;;44.08;4.82;;;;;;;13.29;74.01;99662.22;5031223;28;20067;-46
2023/12/11 03:58:38;;;;;;;35.38;4.85;;;;;;;13.42;73.20;99667.25;5030198;28;20087;-48
2023/12/11 04:01:04;;;;;;;40.08;4.78;;;;;;;14.03;71.25;99669.56;5030633;28;20630;-44
2023/12/11 04:03:31;;;;;;;39.75;4.72;;;;;;;13.31;72.97;99668.28;5030709;28;20033;-45
2023/12/11 04:05:56;;;;;;;34.35;4.75;;;;;;;13.49;71.93;99674.09;5031425;28;20057;-45
2023/12/11 04:08:22;;;;;;;38.72;5.68;;;;;;;13.65;71.68;99665.09;5031120;28;20121;-46
2023/12/11 04:10:47;;;;;;;37.00;4.35;;;;;;;13.73;71.26;99660.53;5031653;28;20030;-47
2023/12/11 04:13:14;;;;;;;47.03;5.45;;;;;;;13.41;71.80;99671.63;5030263;28;20546;-45
2023/12/11 04:15:39;;;;;;;43.75;5.47;;;;;;;13.74;70.64;99670.13;5029941;28;20057;-49
2023/12/11 04:18:05;;;;;;;41.75;5.50;;;;;;;13.47;71.22;99668.91;5030611;28;20037;-45
2023/12/11 04:20:30;;;;;;;41.35;4.90;;;;;;;13.85;69.70;99648.97;5029671;28;20041;-46
2023/12/11 04:22:55;;;;;;;38.97;4.57;;;;;;;13.64;69.57;99672.06;5030189;28;20044;-45
2023/12/11 04:25:21;;;;;;;33.63;4.03;;;;;;;13.80;68.59;99675.25;5029954;28;20175;-45
2023/12/11 04:27:46;;;;;;;37.85;4.93;;;;;;;13.66;68.39;99664.19;5030409;28;20033;-48
2023/12/11 04:30:12;;;;;;;41.80;4.85;;;;;;;13.92;67.87;99656.69;5030304;28;20037;-47
2023/12/11 04:32:37;;;;;;;35.30;4.70;;;;;;;13.86;68.28;99641.09;5029889;28;20124;-47
2023/12/11 04:35:03;;;;;;;33.60;4.15;;;;;;;14.25;67.42;99646.44;5030062;28;20646;-47
2023/12/11 04:37:28;;;;;;;37.50;4.80;;;;;;;14.11;67.15;99658.06;5029534;28;20040;-48
2023/12/11 04:39:54;;;;;;;44.50;5.53;;;;;;;13.64;69.02;99645.03;5029996;28;20064;-45
2023/12/11 04:42:19;;;;;;;36.92;5.10;;;;;;;14.00;68.44;99635.59;5029785;28;20403;-45
2023/12/11 04:44:44;;;;;;;41.35;4.72;;;;;;;13.67;70.22;99648.44;5030071;28;20094;-45
2023/12/11 04:47:10;;;;;;;40.88;5.10;;;;;;;13.61;70.94;99634.59;5028619;28;20072;-47
2023/12/11 04:49:35;;;;;;;37.40;4.53;;;;;;;13.45;71.59;99627.91;5029607;28;20057;-47
2023/12/11 04:52:01;;;;;;;39.67;5.10;;;;;;;13.22;71.77;99626.56;5030064;28;20407;-51
2023/12/11 04:54:26;;;;;;;31.80;4.88;;;;;;;13.54;71.31;99633.84;5029517;28;20156;-45
2023/12/11 04:56:51;;;;;;;33.65;5.03;;;;;;;13.64;71.51;99627.56;5030005;28;20128;-45
2023/12/11 04:59:17;;;;;;;34.25;4.28;;;;;;;13.24;73.21;99635.25;5030105;28;20442;-45
2023/12/11 05:01:42;;;;;;;34.00;4.40;;;;;;;13.35;72.29;99632.47;5029984;28;20072;-45
2023/12/11 05:04:08;;;;;;;31.40;3.85;;;;;;;13.35;71.31;99624.63;5029902;28;20053;-49
2023/12/11 05:06:33;;;;;;;40.50;4.90;;;;;;;13.32;70.90;99617.66;5030381;28;20048;-46
2023/12/11 05:08:59;;;;;;;32.70;4.47;;;;;;;13.60;69.94;99622.41;5030854;28;20034;-45
2023/12/11 05:11:24;;;;;;;27.05;3.88;;;;;;;13.37;69.92;99610.59;5030430;28;20128;-44
2023/12/11 05:13:50;;;;;;;27.27;3.88;;;;;;;13.38;69.99;99625.41;5029098;28;20029;-44
2023/12/11 05:16:16;;;;;;;26.42;3.95;;;;;;;13.76;68.14;99622.09;5030742;28;20132;-44
2023/12/11 05:18:41;;;;;;;27.23;4.03;;;;;;;13.21;69.33;99614.38;5030251;28;20154;-45
2023/12/11 05:21:08;;;;;;;26.83;3.75;;;;;;;14.00;67.04;99612.00;5030475;28;20057;-46
2023/12/11 05:23:33;;;;;;;27.15;3.70;;;;;;;13.66;68.05;99606.59;5030383;28;20037;-45
2023/12/11 05:25:59;;;;;;;26.00;3.17;;;;;;;13.80;67.91;99609.78;5034806;28;20503;-45
2023/12/11 05:28:24;;;;;;;29.02;3.40;;;;;;;13.34;69.18;99615.03;5033750;28;20127;-49
2023/12/11 05:30:50;;;;;;;25.60;3.47;;;;;;;13.41;69.98;99614.03;5035067;28;20037;-44
2023/12/11 05:33:15;;;;;;;30.13;4.25;;;;;;;13.30;70.51;99613.34;5034680;28;20534;-49
2023/12/11 05:35:41;;;;;;;23.08;3.33;;;;;;;13.24;71.05;99614.31;5033398;28;20557;-45
2023/12/11 05:38:06;;;;;;;31.08;3.40;;;;;;;12.88;72.34;99612.28;5033725;28;20037;-50
2023/12/11 05:40:31;;;;;;;24.70;3.30;;;;;;;13.19;72.45;99607.44;5033226;28;20392;-48
2023/12/11 05:42:57;;;;;;;24.90;3.30;;;;;;;13.15;72.95;99611.00;5033652;28;20037;-47
2023/12/11 05:45:22;;;;;;;22.23;3.65;;;;;;;12.75;74.08;99602.88;5033417;28;20034;-46
2023/12/11 05:47:48;;;;;;;21.85;3.35;;;;;;;12.60;74.70;99625.78;5034228;28;20038;-45
2023/12/11 05:50:13;;;;;;;25.13;3.88;;;;;;;12.91;73.09;99604.41;5033573;28;20064;-48
2023/12/11 05:52:39;;;;;;;22.65;2.88;;;;;;;12.93;72.20;99600.84;5033186;28;20082;-47
2023/12/11 05:55:04;;;;;;;28.17;3.45;;;;;;;13.07;71.55;99600.63;5032325;28;20083;-45
2023/12/11 05:57:30;;;;;;;24.85;3.47;;;;;;;12.95;70.48;99596.47;5032875;28;20411;-48
2023/12/11 05:59:55;;;;;;;23.95;2.85;;;;;;;13.33;69.63;99600.22;5033259;28;20510;-44
2023/12/11 06:02:21;;;;;;;25.70;3.40;;;;;;;13.11;69.92;99604.94;5032883;28;20033;-47
2023/12/11 06:04:46;;;;;;;19.98;2.60;;;;;;;13.20;69.88;99612.66;5033153;28;20129;-47
2023/12/11 06:07:11;;;;;;;25.52;2.60;;;;;;;13.24;69.18;99616.06;5033296;28;20040;-44
2023/12/11 06:09:37;;;;;;;20.17;3.00;;;;;;;13.16;70.25;99628.44;5033210;28;20034;-45
2023/12/11 06:12:03;;;;;;;20.55;2.80;;;;;;;12.93;72.45;99633.97;5032843;28;20059;-46
2023/12/11 06:14:29;;;;;;;21.65;2.92;;;;;;;13.01;74.28;99632.13;5032651;28;20407;-50
2023/12/11 06:16:54;;;;;;;29.38;2.88;;;;;;;12.64;76.48;99638.81;5032745;28;20128;-49
2023/12/11 06:19:20;;;;;;;20.27;2.58;;;;;;;12.44;76.58;99642.56;5032050;28;20029;-48
2023/12/11 06:21:45;;;;;;;23.77;3.08;;;;;;;12.81;75.70;99648.13;5032654;28;20056;-47
2023/12/11 06:24:11;;;;;;;25.10;3.00;;;;;;;12.74;76.44;99653.50;5032844;28;20036;-49
2023/12/11 06:26:36;;;;;;;29.23;3.13;;;;;;;12.59;76.89;99657.19;5031939;28;20428;-47
2023/12/11 06:29:02;;;;;;;23.88;3.05;;;;;;;12.49;77.50;99660.81;5032717;28;20068;-45
2023/12/11 06:31:29;;;;;;;24.40;3.33;;;;;;;12.20;79.11;99658.56;5032122;28;20063;-48
2023/12/11 06:33:55;;;;;;;21.60;3.38;;;;;;;12.65;77.15;99653.59;5032535;28;20097;-48
2023/12/11 06:36:25;;;;;;;21.50;3.58;;;;;;;12.49;77.00;99653.84;5031068;28;20042;-46
2023/12/11 06:38:51;;;;;;;20.95;2.78;;;;;;;12.51;77.12;99659.88;5032673;28;20731;-47
2023/12/11 06:41:17;;;;;;;23.10;3.50;;;;;;;12.75;76.69;99663.91;5032246;28;20128;-50
2023/12/11 06:43:46;;;;;;;23.25;3.10;;;;;;;12.42;77.21;99667.88;5031886;28;20034;-45
2023/12/11 06:46:12;;;;;;;18.80;2.70;;;;;;;12.50;77.13;99675.63;5032752;28;20060;-47
2023/12/11 06:48:37;;;;;;;24.42;3.10;;;;;;;12.59;77.20;99705.09;5032399;28;26717;-44
2023/12/11 06:51:03;;;;;;;19.05;2.53;;;;;;;12.49;77.33;99706.13;5032954;28;20120;-46
2023/12/11 06:53:28;;;;;;;25.52;3.00;;;;;;;12.64;77.29;99699.81;5032345;28;20120;-44
2023/12/11 06:55:54;;;;;;;21.83;2.90;;;;;;;12.39;77.37;99690.56;5032055;28;20037;-45
2023/12/11 06:58:19;;;;;;;22.35;2.85;;;;;;;12.41;76.45;99714.94;5031874;28;20293;-47
2023/12/11 07:00:44;;;;;;;26.02;3.00;;;;;;;12.45;76.17;99700.94;5031856;28;20151;-49
2023/12/11 07:03:10;;;;;;;22.05;2.97;;;;;;;12.71;76.13;99711.91;5032029;28;20427;-45
2023/12/11 07:05:35;;;;;;;21.60;3.28;;;;;;;12.57;76.15;99725.16;5031408;28;20048;-45
2023/12/11 07:08:00;;;;;;;21.02;3.00;;;;;;;12.56;76.61;99714.75;5031938;28;20041;-50
2023/12/11 07:10:26;;;;;;;21.40;2.97;;;;;;;12.67;76.96;99739.00;5031415;28;20415;-48
2023/12/11 07:12:51;;;;;;;17.70;2.42;;;;;;;12.64;76.16;99754.72;5031879;28;20037;-47
2023/12/11 07:15:16;;;;;;;15.90;2.38;;;;;;;12.38;77.61;99765.47;5032343;28;20037;-46
2023/12/11 07:17:42;;;;;;;13.85;2.40;;;;;;;12.11;78.53;99761.44;5031557;28;20044;-47
2023/12/11 07:20:08;;;;;;;14.32;2.58;;;;;;;12.39;77.74;99758.50;5031796;28;20133;-47
2023/12/11 07:22:34;;;;;;;18.70;2.55;;;;;;;11.91;79.33;99784.28;5031060;28;20048;-50
2023/12/11 07:25:00;;;;;;;17.42;2.30;;;;;;;12.23;77.60;99789.19;5031550;28;20487;-44
2023/12/11 07:27:26;;;;;;;17.80;2.63;;;;;;;12.03;78.88;99792.00;5029652;28;20073;-46
2023/12/11 07:29:51;;;;;;;14.57;2.70;;;;;;;12.42;77.05;99806.41;5031487;28;20049;-48
2023/12/11 07:32:17;;;;;;;20.25;2.70;;;;;;;12.30;77.83;99803.06;5029967;28;20038;-46
2023/12/11 07:34:43;;;;;;;11.85;2.35;;;;;;;12.39;77.31;99806.44;5031162;28;20124;-47
2023/12/11 07:37:09;;;;;;;11.70;2.17;;;;;;;12.11;78.31;99813.69;5031448;28;20124;-48
2023/12/11 07:39:34;;;;;;;14.40;2.70;;;;;;;12.13;78.49;99831.97;5030966;28;20041;-44
2023/12/11 07:42:00;;;;;;;18.90;2.95;;;;;;;11.96;78.52;99828.63;5029939;28;20064;-47
2023/12/11 07:44:25;;;;;;;12.57;2.47;;;;;;;12.33;77.95;99847.44;5030690;28;20065;-45
2023/12/11 07:46:50;;;;;;;15.65;2.65;;;;;;;12.55;77.93;99842.00;5030722;28;20045;-48
2023/12/11 07:49:16;;;;;;;17.25;2.65;;;;;;;12.40;78.28;99859.56;5030630;28;20037;-48
2023/12/11 07:51:41;;;;;;;16.60;2.50;;;;;;;12.02;79.91;99878.22;5030776;28;20029;-47
2023/12/11 07:54:07;;;;;;;16.08;2.72;;;;;;;12.05;79.97;99883.41;5031324;28;20455;-46
2023/12/11 07:56:32;;;;;;;18.25;2.90;;;;;;;12.15;79.86;99887.69;5013027;28;20453;-44
2023/12/11 07:58:58;;;;;;;17.80;3.63;;;;;;;12.09;79.66;99888.59;5031465;28;20037;-46
2023/12/11 08:01:23;;;;;;;16.73;3.92;;;;;;;12.25;78.13;99894.56;5030477;28;20087;-49
2023/12/11 08:03:49;;;;;;;21.52;4.18;;;;;;;12.12;78.07;99909.50;5030657;28;20030;-50
2023/12/11 08:06:15;;;;;;;24.40;4.13;;;;;;;12.05;78.54;99899.09;5031116;28;20172;-45
2023/12/11 08:08:43;;;;;;;24.33;4.47;;;;;;;11.88;77.88;99912.28;5030679;28;20642;-46
2023/12/11 08:11:20;;;;;;;18.55;4.05;;;;;;;12.10;77.38;99907.75;5031199;28;20116;-47
2023/12/11 08:13:45;;;;;;;16.25;3.67;;;;;;;12.32;75.61;99917.13;5030724;28;20056;-49
2023/12/11 08:16:11;;;;;;;19.90;3.83;;;;;;;12.17;75.07;99925.13;5030576;28;20030;-45
2023/12/11 08:18:36;;;;;;;20.42;3.45;;;;;;;12.31;73.34;99932.84;5030517;28;20041;-46
2023/12/11 08:21:03;;;;;;;15.57;2.92;;;;;;;12.11;74.43;99927.78;5030367;28;20377;-47
2023/12/11 08:23:29;;;;;;;18.27;3.42;;;;;;;12.47;72.66;99944.91;5030378;28;20037;-47
2023/12/11 08:25:54;;;;;;;12.25;3.30;;;;;;;12.43;72.39;99946.69;5031782;28;20038;-46
2023/12/11 08:28:20;;;;;;;13.13;3.10;;;;;;;12.45;71.98;99960.59;5031685;28;20029;-49
2023/12/11 08:30:45;;;;;;;16.23;2.78;;;;;;;12.60;71.41;99962.22;5032913;28;20033;-45
2023/12/11 08:33:12;;;;;;;18.30;3.30;;;;;;;12.54;70.86;99957.91;5033586;28;20101;-46
2023/12/11 08:35:38;;;;;;;20.38;3.17;;;;;;;12.41;71.33;99982.41;5040650;28;20486;-49
2023/12/11 08:38:03;;;;;;;14.10;2.92;;;;;;;12.45;71.88;99984.13;5040552;28;20041;-45
2023/12/11 08:40:29;;;;;;;11.68;2.75;;;;;;;12.49;70.77;99995.44;5030662;28;20037;-47
2023/12/11 08:42:54;;;;;;;16.02;3.22;;;;;;;12.58;69.71;100001.44;5030364;28;20037;-48
2023/12/11 08:45:20;;;;;;;14.40;3.08;;;;;;;12.69;69.88;100001.34;5029595;28;20443;-45
2023/12/11 08:47:45;;;;;;;15.05;3.00;;;;;;;12.76;69.10;100012.59;5030106;28;20040;-46
2023/12/11 08:50:11;;;;;;;16.58;3.00;;;;;;;12.64;69.72;100012.72;5030785;28;20404;-44
2023/12/11 08:52:37;;;;;;;18.48;3.30;;;;;;;12.73;69.84;100015.25;5030323;28;20045;-46
2023/12/11 08:55:03;;;;;;;17.15;3.78;;;;;;;12.57;69.38;100018.00;5030904;28;20056;-47
2023/12/11 08:57:28;;;;;;;13.38;3.17;;;;;;;12.66;69.78;100047.56;5028223;28;20045;-45
2023/12/11 08:59:54;;;;;;;14.68;3.55;;;;;;;12.50;70.35;100042.47;5029303;28;20030;-44
2023/12/11 09:02:19;;;;;;;12.50;2.75;;;;;;;12.51;69.85;100056.41;5029410;28;20038;-49
2023/12/11 09:04:44;;;;;;;17.00;3.60;;;;;;;12.77;69.70;100054.44;5030041;28;20038;-43
2023/12/11 09:07:10;;;;;;;13.88;3.42;;;;;;;12.39;70.29;100065.19;5028733;28;20083;-45
2023/12/11 09:09:37;;;;;;;12.00;3.20;;;;;;;12.55;70.49;100069.47;5029299;28;20424;-44
2023/12/11 09:12:02;;;;;;;15.07;3.45;;;;;;;12.34;70.94;100079.19;5028051;28;20088;-45
2023/12/11 09:14:28;;;;;;;17.45;3.45;;;;;;;12.66;70.08;100081.56;5028935;28;20104;-48
2023/12/11 09:16:53;;;;;;;16.48;3.40;;;;;;;12.76;69.90;100097.16;5029473;28;20037;-45
2023/12/11 09:19:18;;;;;;;12.75;3.28;;;;;;;12.71;69.74;100095.47;5029224;28;20037;-47
2023/12/11 09:21:44;;;;;;;16.08;3.53;;;;;;;12.97;69.20;100088.28;5029488;28;20075;-44
2023/12/11 09:24:11;;;;;;;14.98;3.10;;;;;;;12.70;70.21;100092.00;5030340;28;20190;-46
2023/12/11 09:26:36;;;;;;;16.30;3.40;;;;;;;12.62;69.49;100099.03;5029288;28;20072;-47
2023/12/11 09:29:02;;;;;;;14.02;2.90;;;;;;;13.01;68.64;100109.19;5029498;28;20516;-46
2023/12/11 09:31:27;;;;;;;14.57;2.92;;;;;;;13.06;68.49;100111.75;5028736;28;20068;-49
2023/12/11 09:33:53;;;;;;;14.10;3.00;;;;;;;13.04;67.76;100129.22;5029521;28;20053;-49
2023/12/11 09:36:19;;;;;;;16.63;3.22;;;;;;;12.95;67.33;100132.78;5028857;28;20044;-52
2023/12/11 09:38:44;;;;;;;12.45;2.88;;;;;;;12.92;68.05;100137.19;5029937;28;20453;-48
2023/12/11 09:41:09;;;;;;;15.70;3.20;;;;;;;12.84;68.08;100139.84;5029908;28;20033;-45
2023/12/11 09:43:36;;;;;;;13.73;2.63;;;;;;;13.00;66.85;100144.06;5029173;28;20120;-48
2023/12/11 09:46:06;;;;;;;12.63;2.40;;;;;;;13.12;67.26;100150.97;5028282;28;20045;-48
2023/12/11 09:48:31;;;;;;;13.52;2.28;;;;;;;13.27;66.40;100163.94;5029267;28;20043;-49
2023/12/11 09:50:57;;;;;;;11.35;2.28;;;;;;;12.93;66.87;100157.19;5029221;28;20133;-45
2023/12/11 09:53:24;;;;;;;14.70;2.15;;;;;;;13.07;66.10;100172.81;5028962;28;20184;-46
2023/12/11 09:55:50;;;;;;;9.77;1.80;;;;;;;12.97;66.51;100191.19;5029417;28;20495;-48
2023/12/11 09:58:15;;;;;;;12.60;1.88;;;;;;;13.08;66.01;100191.13;5029635;28;20128;-46
2023/12/11 10:00:42;;;;;;;11.75;2.17;;;;;;;12.82;66.45;100201.75;5027415;28;20105;-48
2023/12/11 10:03:08;;;;;;;16.05;2.45;;;;;;;12.77;66.68;100206.16;5029314;28;20561;-47
2023/12/11 10:05:35;;;;;;;11.60;1.83;;;;;;;13.07;65.58;100215.53;5028769;28;20472;-50
2023/12/11 10:08:01;;;;;;;10.25;1.90;;;;;;;12.96;65.12;100212.13;5029365;28;20098;-47
2023/12/11 10:10:30;;;;;;;11.00;1.95;;;;;;;13.06;64.76;100216.41;5028862;28;20491;-46
2023/12/11 10:12:56;;;;;;;12.65;2.60;;;;;;;12.95;65.33;100229.59;5033095;28;20104;-46
2023/12/11 10:15:26;;;;;;;12.30;2.35;;;;;;;12.99;65.43;100233.06;5032674;28;20467;-45
2023/12/11 10:18:12;;;;;;;7.95;2.08;;;;;;;12.90;66.03;100239.22;5033449;28;20037;-46
2023/12/11 10:20:40;;;;;;;11.65;2.50;;;;;;;13.31;64.92;100236.31;5032309;28;20041;-45
2023/12/11 10:23:15;;;;;;;11.93;2.83;;;;;;;13.23;65.54;100242.53;5032828;28;20033;-48
2023/12/11 10:25:42;;;;;;;10.57;2.60;;;;;;;13.38;65.38;100238.03;5032424;28;20491;-45
2023/12/11 10:28:10;;;;;;;9.95;2.70;;;;;;;12.74;67.16;100258.50;5032708;28;20045;-48
2023/12/11 10:30:47;;;;;;;10.43;3.03;;;;;;;13.08;66.30;100261.78;5031102;28;20118;-46
2023/12/11 10:33:13;;;;;;;17.25;3.40;;;;;;;13.02;66.46;100267.91;5033212;28;20049;-46
2023/12/11 10:35:39;;;;;;;13.50;3.72;;;;;;;13.00;67.54;100271.41;5031151;28;20053;-46
2023/12/11 10:38:05;;;;;;;13.98;3.70;;;;;;;13.23;66.14;100255.59;5032585;28;20063;-49
2023/12/11 10:40:39;;;;;;;14.65;3.88;;;;;;;13.01;66.88;100263.56;5032055;28;20049;-46
2023/12/11 10:43:04;;;;;;;14.88;3.47;;;;;;;12.76;66.44;100269.81;5032557;28;20033;-45
2023/12/11 10:45:31;;;;;;;9.13;2.90;;;;;;;12.85;66.14;100269.78;5032557;28;20038;-48
2023/12/11 10:47:58;;;;;;;9.95;3.30;;;;;;;13.12;65.76;100279.22;5031521;28;20034;-45
2023/12/11 10:50:24;;;;;;;12.25;3.05;;;;;;;12.89;64.88;100281.06;5032247;28;20389;-44
2023/12/11 10:52:50;;;;;;;14.68;2.92;;;;;;;12.86;64.58;100287.22;5032758;28;20036;-47
2023/12/11 10:55:15;;;;;;;12.50;3.15;;;;;;;13.30;64.07;100289.56;5032516;28;20041;-44
2023/12/11 10:57:40;;;;;;;11.90;2.88;;;;;;;12.82;64.73;100295.94;5031956;28;20061;-45
2023/12/11 11:00:07;;;;;;;12.10;2.78;;;;;;;13.09;64.90;100291.44;5032283;28;20034;-46
2023/12/11 11:02:34;;;;;;;7.13;2.58;;;;;;;13.29;64.23;100292.22;5032505;28;20515;-45
2023/12/11 11:05:00;;;;;;;12.93;2.70;;;;;;;13.35;63.31;100290.44;5032134;28;20041;-45
2023/12/11 11:07:31;;;;;;;14.13;3.17;;;;;;;13.37;63.87;100282.53;5031626;28;20044;-45
2023/12/11 11:10:19;;;;;;;11.90;2.75;;;;;;;13.50;63.67;100289.41;5032007;28;20030;-47
2023/12/11 11:13:11;;;;;;;13.80;2.70;;;;;;;13.60;63.82;100303.31;5031683;28;20494;-47
2023/12/11 11:15:37;;;;;;;12.63;3.00;;;;;;;13.06;65.01;100310.63;5031152;28;20038;-46
2023/12/11 11:18:07;;;;;;;16.08;2.90;;;;;;;13.40;64.96;100309.59;5031815;28;20095;-45